Pickton, Texas
Current Conditions -  °F | °C
As of 1:35 AM on Thursday 23 Oct 2014 (Local Time) from KSLR Reporting Station
Clear Clear  
Wind Chill: 62°   Ceiling: Unl
Heat Index: 62°   Visibility: 10mi
Dew Point: 53°   Wind: 6mph
Humidity: 72%   Direction: 100°E
Pressure: 30.14"   Gusts: NA
Location:  33.03°N, 95.39°W
Report Text: KSLR 230635Z AUTO 10005KT 10SM CLR 17/12 A3014 RMK AO2 T01680117
Loading
Personal Weather Stations






























Interactive Weather Map New forecast layout! Learn more

10-Day Weather Forecast

Advertisements
Track Severe Weather on mobile